sensor_id;sensor_type;location;lat;lon;timestamp;temperature;humidity
15930;DHT22;8064;51.142;4.780;2024-03-29T00:02:09;10.80;95.30
15930;DHT22;8064;51.142;4.780;2024-03-29T00:04:35;10.80;95.30
15930;DHT22;8064;51.142;4.780;2024-03-29T00:07:01;10.80;95.30
15930;DHT22;8064;51.142;4.780;2024-03-29T00:09:26;10.70;95.30
15930;DHT22;8064;51.142;4.780;2024-03-29T00:11:52;10.70;95.30
15930;DHT22;8064;51.142;4.780;2024-03-29T00:14:18;10.70;95.30
15930;DHT22;8064;51.142;4.780;2024-03-29T00:16:43;10.70;95.40
15930;DHT22;8064;51.142;4.780;2024-03-29T00:19:09;10.70;95.40
15930;DHT22;8064;51.142;4.780;2024-03-29T00:21:35;10.70;95.40
15930;DHT22;8064;51.142;4.780;2024-03-29T00:24:01;10.70;95.40
15930;DHT22;8064;51.142;4.780;2024-03-29T00:26:26;10.70;95.40
15930;DHT22;8064;51.142;4.780;2024-03-29T00:28:52;10.70;95.40
15930;DHT22;8064;51.142;4.780;2024-03-29T00:31:18;10.70;95.40
15930;DHT22;8064;51.142;4.780;2024-03-29T00:33:44;10.70;95.40
15930;DHT22;8064;51.142;4.780;2024-03-29T00:36:10;10.70;95.40
15930;DHT22;8064;51.142;4.780;2024-03-29T00:38:35;10.70;95.40
15930;DHT22;8064;51.142;4.780;2024-03-29T00:41:01;10.70;95.40
15930;DHT22;8064;51.142;4.780;2024-03-29T00:43:27;10.70;95.40
15930;DHT22;8064;51.142;4.780;2024-03-29T00:45:52;10.70;95.40
15930;DHT22;8064;51.142;4.780;2024-03-29T00:48:18;10.70;95.40
15930;DHT22;8064;51.142;4.780;2024-03-29T00:50:45;10.70;95.40
15930;DHT22;8064;51.142;4.780;2024-03-29T00:53:11;10.70;95.40
15930;DHT22;8064;51.142;4.780;2024-03-29T00:55:37;10.70;95.40
15930;DHT22;8064;51.142;4.780;2024-03-29T00:58:03;10.70;95.40
15930;DHT22;8064;51.142;4.780;2024-03-29T01:00:29;10.70;95.40
15930;DHT22;8064;51.142;4.780;2024-03-29T01:02:54;10.70;95.40
15930;DHT22;8064;51.142;4.780;2024-03-29T01:05:20;10.80;95.50
15930;DHT22;8064;51.142;4.780;2024-03-29T01:07:46;10.70;95.40
15930;DHT22;8064;51.142;4.780;2024-03-29T01:10:11;10.80;95.50
15930;DHT22;8064;51.142;4.780;2024-03-29T01:12:37;10.70;95.40
15930;DHT22;8064;51.142;4.780;2024-03-29T01:15:05;10.70;95.50
15930;DHT22;8064;51.142;4.780;2024-03-29T01:17:32;10.70;95.50
15930;DHT22;8064;51.142;4.780;2024-03-29T01:19:57;10.60;95.50
15930;DHT22;8064;51.142;4.780;2024-03-29T01:22:23;10.60;95.60
15930;DHT22;8064;51.142;4.780;2024-03-29T01:24:49;10.60;95.60
15930;DHT22;8064;51.142;4.780;2024-03-29T01:27:14;10.60;95.70
15930;DHT22;8064;51.142;4.780;2024-03-29T01:29:40;10.50;95.70
15930;DHT22;8064;51.142;4.780;2024-03-29T01:32:06;10.50;95.70
15930;DHT22;8064;51.142;4.780;2024-03-29T01:34:32;10.60;95.80
15930;DHT22;8064;51.142;4.780;2024-03-29T01:36:58;10.60;95.80
15930;DHT22;8064;51.142;4.780;2024-03-29T01:39:24;10.60;95.80
15930;DHT22;8064;51.142;4.780;2024-03-29T01:41:54;10.60;95.80
15930;DHT22;8064;51.142;4.780;2024-03-29T01:44:20;10.60;95.80
15930;DHT22;8064;51.142;4.780;2024-03-29T01:46:47;10.60;95.80
15930;DHT22;8064;51.142;4.780;2024-03-29T01:49:13;10.60;95.70
15930;DHT22;8064;51.142;4.780;2024-03-29T01:51:40;10.70;95.80
15930;DHT22;8064;51.142;4.780;2024-03-29T01:54:08;10.70;95.70
15930;DHT22;8064;51.142;4.780;2024-03-29T01:56:35;10.80;95.70
15930;DHT22;8064;51.142;4.780;2024-03-29T01:59:03;10.80;95.70
15930;DHT22;8064;51.142;4.780;2024-03-29T02:01:30;10.80;95.60
15930;DHT22;8064;51.142;4.780;2024-03-29T02:03:56;10.90;95.60
15930;DHT22;8064;51.142;4.780;2024-03-29T02:06:23;10.90;95.60
15930;DHT22;8064;51.142;4.780;2024-03-29T02:08:52;10.90;95.50
15930;DHT22;8064;51.142;4.780;2024-03-29T02:11:20;11.00;95.50
15930;DHT22;8064;51.142;4.780;2024-03-29T02:13:47;11.00;95.50
15930;DHT22;8064;51.142;4.780;2024-03-29T02:16:13;11.00;95.60
15930;DHT22;8064;51.142;4.780;2024-03-29T02:18:39;11.00;95.60
15930;DHT22;8064;51.142;4.780;2024-03-29T02:21:04;11.00;95.70
15930;DHT22;8064;51.142;4.780;2024-03-29T02:23:32;11.00;95.70
15930;DHT22;8064;51.142;4.780;2024-03-29T02:25:58;11.00;95.80
15930;DHT22;8064;51.142;4.780;2024-03-29T02:28:24;10.90;95.80
15930;DHT22;8064;51.142;4.780;2024-03-29T02:30:50;10.90;95.90
15930;DHT22;8064;51.142;4.780;2024-03-29T02:33:16;10.90;95.90
15930;DHT22;8064;51.142;4.780;2024-03-29T02:35:42;10.90;96.00
15930;DHT22;8064;51.142;4.780;2024-03-29T02:38:08;10.90;96.40
15930;DHT22;8064;51.142;4.780;2024-03-29T02:40:34;10.90;96.20
15930;DHT22;8064;51.142;4.780;2024-03-29T02:42:59;10.80;96.20
15930;DHT22;8064;51.142;4.780;2024-03-29T02:45:25;10.80;96.20
15930;DHT22;8064;51.142;4.780;2024-03-29T02:47:51;10.80;96.30
15930;DHT22;8064;51.142;4.780;2024-03-29T02:50:17;10.80;96.40
15930;DHT22;8064;51.142;4.780;2024-03-29T02:52:42;10.70;96.40
15930;DHT22;8064;51.142;4.780;2024-03-29T02:55:08;10.70;96.40
15930;DHT22;8064;51.142;4.780;2024-03-29T02:57:37;10.70;96.50
15930;DHT22;8064;51.142;4.780;2024-03-29T03:00:04;10.70;96.50
15930;DHT22;8064;51.142;4.780;2024-03-29T03:02:30;10.70;96.60
15930;DHT22;8064;51.142;4.780;2024-03-29T03:04:56;10.70;96.70
15930;DHT22;8064;51.142;4.780;2024-03-29T03:07:22;10.70;96.80
15930;DHT22;8064;51.142;4.780;2024-03-29T03:10:07;10.60;96.80
15930;DHT22;8064;51.142;4.780;2024-03-29T03:12:51;10.50;97.30
15930;DHT22;8064;51.142;4.780;2024-03-29T03:15:17;10.50;97.20
15930;DHT22;8064;51.142;4.780;2024-03-29T03:17:43;10.50;97.30
15930;DHT22;8064;51.142;4.780;2024-03-29T03:20:09;10.40;97.50
15930;DHT22;8064;51.142;4.780;2024-03-29T03:22:35;10.40;97.60
15930;DHT22;8064;51.142;4.780;2024-03-29T03:25:01;10.30;97.70
15930;DHT22;8064;51.142;4.780;2024-03-29T03:27:27;10.30;97.90
15930;DHT22;8064;51.142;4.780;2024-03-29T03:29:52;10.20;97.90
15930;DHT22;8064;51.142;4.780;2024-03-29T03:32:18;10.20;98.10
15930;DHT22;8064;51.142;4.780;2024-03-29T03:34:44;10.10;98.40
15930;DHT22;8064;51.142;4.780;2024-03-29T03:37:10;10.10;98.50
15930;DHT22;8064;51.142;4.780;2024-03-29T03:39:37;10.00;98.70
15930;DHT22;8064;51.142;4.780;2024-03-29T03:42:03;9.90;99.30
15930;DHT22;8064;51.142;4.780;2024-03-29T03:44:29;9.90;99.50
15930;DHT22;8064;51.142;4.780;2024-03-29T03:46:55;9.80;99.60
15930;DHT22;8064;51.142;4.780;2024-03-29T03:49:21;9.80;99.70
15930;DHT22;8064;51.142;4.780;2024-03-29T03:51:47;9.70;99.80
15930;DHT22;8064;51.142;4.780;2024-03-29T03:54:12;9.60;99.90
15930;DHT22;8064;51.142;4.780;2024-03-29T03:56:38;9.60;99.90
15930;DHT22;8064;51.142;4.780;2024-03-29T03:59:04;9.60;99.90
15930;DHT22;8064;51.142;4.780;2024-03-29T04:01:30;9.50;99.90
15930;DHT22;8064;51.142;4.780;2024-03-29T04:03:55;9.50;99.90
15930;DHT22;8064;51.142;4.780;2024-03-29T04:06:21;9.40;99.90
15930;DHT22;8064;51.142;4.780;2024-03-29T04:08:47;9.30;99.90
15930;DHT22;8064;51.142;4.780;2024-03-29T04:11:13;9.30;99.90
15930;DHT22;8064;51.142;4.780;2024-03-29T04:13:38;9.30;99.90
15930;DHT22;8064;51.142;4.780;2024-03-29T04:16:06;9.30;99.90
15930;DHT22;8064;51.142;4.780;2024-03-29T04:18:33;9.20;99.90
15930;DHT22;8064;51.142;4.780;2024-03-29T04:21:01;9.20;99.90
15930;DHT22;8064;51.142;4.780;2024-03-29T04:23:28;9.20;99.90
15930;DHT22;8064;51.142;4.780;2024-03-29T04:25:55;9.20;99.90
15930;DHT22;8064;51.142;4.780;2024-03-29T04:28:21;9.30;99.90
15930;DHT22;8064;51.142;4.780;2024-03-29T04:30:57;9.30;99.90
15930;DHT22;8064;51.142;4.780;2024-03-29T04:33:24;9.30;99.90
15930;DHT22;8064;51.142;4.780;2024-03-29T04:36:01;9.30;99.90
15930;DHT22;8064;51.142;4.780;2024-03-29T04:38:28;9.30;99.90
15930;DHT22;8064;51.142;4.780;2024-03-29T04:40:55;9.30;99.90
15930;DHT22;8064;51.142;4.780;2024-03-29T04:43:23;9.30;99.90
15930;DHT22;8064;51.142;4.780;2024-03-29T04:45:49;9.30;99.90
15930;DHT22;8064;51.142;4.780;2024-03-29T04:48:14;9.30;99.90
15930;DHT22;8064;51.142;4.780;2024-03-29T04:50:40;9.30;99.90
15930;DHT22;8064;51.142;4.780;2024-03-29T04:53:07;9.30;99.90
15930;DHT22;8064;51.142;4.780;2024-03-29T04:55:34;9.30;99.90
15930;DHT22;8064;51.142;4.780;2024-03-29T04:58:01;9.30;99.90
15930;DHT22;8064;51.142;4.780;2024-03-29T05:00:26;9.20;99.90
15930;DHT22;8064;51.142;4.780;2024-03-29T05:02:52;9.30;99.90
15930;DHT22;8064;51.142;4.780;2024-03-29T05:05:18;9.20;99.90
15930;DHT22;8064;51.142;4.780;2024-03-29T05:07:44;9.20;99.90
15930;DHT22;8064;51.142;4.780;2024-03-29T05:10:09;9.20;99.90
15930;DHT22;8064;51.142;4.780;2024-03-29T05:12:36;9.20;99.90
15930;DHT22;8064;51.142;4.780;2024-03-29T05:15:02;9.20;99.90
15930;DHT22;8064;51.142;4.780;2024-03-29T05:17:28;9.20;99.90
15930;DHT22;8064;51.142;4.780;2024-03-29T05:19:54;9.20;99.90
15930;DHT22;8064;51.142;4.780;2024-03-29T05:22:20;9.20;99.90
15930;DHT22;8064;51.142;4.780;2024-03-29T05:24:46;9.20;99.90
15930;DHT22;8064;51.142;4.780;2024-03-29T05:27:12;9.20;99.90
15930;DHT22;8064;51.142;4.780;2024-03-29T05:29:38;9.20;99.90
15930;DHT22;8064;51.142;4.780;2024-03-29T05:32:05;9.20;99.90
15930;DHT22;8064;51.142;4.780;2024-03-29T05:34:31;9.20;99.90
15930;DHT22;8064;51.142;4.780;2024-03-29T05:36:57;9.20;99.90
15930;DHT22;8064;51.142;4.780;2024-03-29T05:39:22;9.20;99.90
15930;DHT22;8064;51.142;4.780;2024-03-29T05:41:48;9.20;99.90
15930;DHT22;8064;51.142;4.780;2024-03-29T05:44:14;9.20;99.90
15930;DHT22;8064;51.142;4.780;2024-03-29T05:46:40;9.20;99.90
15930;DHT22;8064;51.142;4.780;2024-03-29T05:49:06;9.20;99.90
15930;DHT22;8064;51.142;4.780;2024-03-29T05:51:32;9.20;99.90
15930;DHT22;8064;51.142;4.780;2024-03-29T05:54:00;9.10;99.90
15930;DHT22;8064;51.142;4.780;2024-03-29T05:56:26;9.10;99.90
15930;DHT22;8064;51.142;4.780;2024-03-29T05:58:51;9.10;99.90
15930;DHT22;8064;51.142;4.780;2024-03-29T06:01:17;9.10;99.90
15930;DHT22;8064;51.142;4.780;2024-03-29T06:03:43;9.10;99.90
15930;DHT22;8064;51.142;4.780;2024-03-29T06:06:09;9.10;99.90
15930;DHT22;8064;51.142;4.780;2024-03-29T06:08:43;9.20;99.90
15930;DHT22;8064;51.142;4.780;2024-03-29T06:11:09;9.20;99.90
15930;DHT22;8064;51.142;4.780;2024-03-29T06:13:34;9.20;99.90
15930;DHT22;8064;51.142;4.780;2024-03-29T06:16:20;9.20;99.90
15930;DHT22;8064;51.142;4.780;2024-03-29T06:19:05;9.30;99.90
15930;DHT22;8064;51.142;4.780;2024-03-29T06:21:31;9.30;99.90
15930;DHT22;8064;51.142;4.780;2024-03-29T06:24:06;9.40;99.90
15930;DHT22;8064;51.142;4.780;2024-03-29T06:26:32;9.40;99.90
15930;DHT22;8064;51.142;4.780;2024-03-29T06:28:59;9.50;99.90
15930;DHT22;8064;51.142;4.780;2024-03-29T06:31:25;9.50;99.90
15930;DHT22;8064;51.142;4.780;2024-03-29T06:33:51;9.60;99.90
15930;DHT22;8064;51.142;4.780;2024-03-29T06:36:16;9.60;99.90
15930;DHT22;8064;51.142;4.780;2024-03-29T06:38:42;9.70;99.90
15930;DHT22;8064;51.142;4.780;2024-03-29T06:41:08;9.80;99.90
15930;DHT22;8064;51.142;4.780;2024-03-29T06:43:34;9.80;99.90
15930;DHT22;8064;51.142;4.780;2024-03-29T06:46:00;9.90;99.90
15930;DHT22;8064;51.142;4.780;2024-03-29T06:48:28;10.00;99.90
15930;DHT22;8064;51.142;4.780;2024-03-29T06:50:54;10.10;99.90
15930;DHT22;8064;51.142;4.780;2024-03-29T06:53:19;10.10;99.90
15930;DHT22;8064;51.142;4.780;2024-03-29T06:55:45;10.10;99.90
15930;DHT22;8064;51.142;4.780;2024-03-29T06:58:11;10.10;99.90
15930;DHT22;8064;51.142;4.780;2024-03-29T07:00:37;10.20;99.90
15930;DHT22;8064;51.142;4.780;2024-03-29T07:03:03;10.30;99.90
15930;DHT22;8064;51.142;4.780;2024-03-29T07:05:28;10.30;99.90
15930;DHT22;8064;51.142;4.780;2024-03-29T07:07:54;10.40;99.90
15930;DHT22;8064;51.142;4.780;2024-03-29T07:10:21;10.40;99.90
15930;DHT22;8064;51.142;4.780;2024-03-29T07:12:47;10.50;99.90
15930;DHT22;8064;51.142;4.780;2024-03-29T07:15:13;10.60;99.90
15930;DHT22;8064;51.142;4.780;2024-03-29T07:17:38;10.60;99.90
15930;DHT22;8064;51.142;4.780;2024-03-29T07:20:06;10.60;99.90
15930;DHT22;8064;51.142;4.780;2024-03-29T07:22:33;10.60;99.90
15930;DHT22;8064;51.142;4.780;2024-03-29T07:24:59;10.60;99.90
15930;DHT22;8064;51.142;4.780;2024-03-29T07:27:25;10.60;99.90
15930;DHT22;8064;51.142;4.780;2024-03-29T07:29:51;10.60;99.90
15930;DHT22;8064;51.142;4.780;2024-03-29T07:32:18;10.60;99.90
15930;DHT22;8064;51.142;4.780;2024-03-29T07:34:44;10.60;99.90
15930;DHT22;8064;51.142;4.780;2024-03-29T07:37:10;10.60;99.90
15930;DHT22;8064;51.142;4.780;2024-03-29T07:39:41;10.60;99.90
15930;DHT22;8064;51.142;4.780;2024-03-29T07:42:08;10.60;99.90
15930;DHT22;8064;51.142;4.780;2024-03-29T07:44:33;10.60;99.90
15930;DHT22;8064;51.142;4.780;2024-03-29T07:47:00;10.60;99.90
15930;DHT22;8064;51.142;4.780;2024-03-29T07:49:27;10.50;99.90
15930;DHT22;8064;51.142;4.780;2024-03-29T07:51:55;10.50;99.90
15930;DHT22;8064;51.142;4.780;2024-03-29T07:54:21;10.50;99.90
15930;DHT22;8064;51.142;4.780;2024-03-29T07:56:48;10.50;99.90
15930;DHT22;8064;51.142;4.780;2024-03-29T07:59:14;10.50;99.90
15930;DHT22;8064;51.142;4.780;2024-03-29T08:01:45;10.50;99.90
15930;DHT22;8064;51.142;4.780;2024-03-29T08:04:13;10.50;99.90
15930;DHT22;8064;51.142;4.780;2024-03-29T08:06:42;10.50;99.90
15930;DHT22;8064;51.142;4.780;2024-03-29T08:09:09;10.50;99.90
15930;DHT22;8064;51.142;4.780;2024-03-29T08:11:38;10.50;99.90
15930;DHT22;8064;51.142;4.780;2024-03-29T08:14:04;10.60;99.90
15930;DHT22;8064;51.142;4.780;2024-03-29T08:16:29;10.70;99.90
15930;DHT22;8064;51.142;4.780;2024-03-29T08:18:55;10.80;99.90
15930;DHT22;8064;51.142;4.780;2024-03-29T08:21:21;10.90;99.90
15930;DHT22;8064;51.142;4.780;2024-03-29T08:23:47;11.10;99.90
15930;DHT22;8064;51.142;4.780;2024-03-29T08:26:13;11.10;99.90
15930;DHT22;8064;51.142;4.780;2024-03-29T08:28:39;11.20;99.90
15930;DHT22;8064;51.142;4.780;2024-03-29T08:31:06;11.20;99.90
15930;DHT22;8064;51.142;4.780;2024-03-29T08:33:34;11.30;99.90
15930;DHT22;8064;51.142;4.780;2024-03-29T08:36:04;11.40;99.90
15930;DHT22;8064;51.142;4.780;2024-03-29T08:38:30;11.40;99.90
15930;DHT22;8064;51.142;4.780;2024-03-29T08:40:56;11.40;99.90
15930;DHT22;8064;51.142;4.780;2024-03-29T08:43:22;11.40;99.90
15930;DHT22;8064;51.142;4.780;2024-03-29T08:45:48;11.50;99.90
15930;DHT22;8064;51.142;4.780;2024-03-29T08:48:14;11.70;99.90
15930;DHT22;8064;51.142;4.780;2024-03-29T08:50:39;11.90;99.90
15930;DHT22;8064;51.142;4.780;2024-03-29T08:53:05;12.10;99.90
15930;DHT22;8064;51.142;4.780;2024-03-29T08:55:32;12.40;99.90
15930;DHT22;8064;51.142;4.780;2024-03-29T08:57:58;12.50;99.90
15930;DHT22;8064;51.142;4.780;2024-03-29T09:00:25;12.60;99.90
15930;DHT22;8064;51.142;4.780;2024-03-29T09:02:51;12.70;99.90
15930;DHT22;8064;51.142;4.780;2024-03-29T09:05:17;12.80;99.90
15930;DHT22;8064;51.142;4.780;2024-03-29T09:07:43;12.90;99.90
15930;DHT22;8064;51.142;4.780;2024-03-29T09:10:08;13.00;99.90
15930;DHT22;8064;51.142;4.780;2024-03-29T09:12:34;13.10;99.90
15930;DHT22;8064;51.142;4.780;2024-03-29T09:15:00;13.30;99.90
15930;DHT22;8064;51.142;4.780;2024-03-29T09:17:26;13.50;99.90
15930;DHT22;8064;51.142;4.780;2024-03-29T09:19:52;13.70;99.90
15930;DHT22;8064;51.142;4.780;2024-03-29T09:22:18;14.00;99.90
15930;DHT22;8064;51.142;4.780;2024-03-29T09:24:44;14.20;99.90
15930;DHT22;8064;51.142;4.780;2024-03-29T09:27:10;14.40;99.90
15930;DHT22;8064;51.142;4.780;2024-03-29T09:29:36;14.60;99.90
15930;DHT22;8064;51.142;4.780;2024-03-29T09:32:02;14.70;99.90
15930;DHT22;8064;51.142;4.780;2024-03-29T09:34:29;14.70;99.90
15930;DHT22;8064;51.142;4.780;2024-03-29T09:36:56;14.70;99.90
15930;DHT22;8064;51.142;4.780;2024-03-29T09:39:23;14.60;99.90
15930;DHT22;8064;51.142;4.780;2024-03-29T09:41:49;14.50;99.90
15930;DHT22;8064;51.142;4.780;2024-03-29T09:44:16;14.50;99.90
15930;DHT22;8064;51.142;4.780;2024-03-29T09:46:43;14.50;99.90
15930;DHT22;8064;51.142;4.780;2024-03-29T09:49:09;14.60;99.90
15930;DHT22;8064;51.142;4.780;2024-03-29T09:51:39;14.60;99.90
15930;DHT22;8064;51.142;4.780;2024-03-29T09:54:05;14.60;99.90
15930;DHT22;8064;51.142;4.780;2024-03-29T09:56:33;14.40;99.90
15930;DHT22;8064;51.142;4.780;2024-03-29T09:59:00;14.30;99.90
15930;DHT22;8064;51.142;4.780;2024-03-29T10:01:27;14.20;99.90
15930;DHT22;8064;51.142;4.780;2024-03-29T10:03:53;14.30;99.90
15930;DHT22;8064;51.142;4.780;2024-03-29T10:06:23;14.40;99.90
15930;DHT22;8064;51.142;4.780;2024-03-29T10:08:49;14.80;99.90
15930;DHT22;8064;51.142;4.780;2024-03-29T10:11:16;15.00;99.90
15930;DHT22;8064;51.142;4.780;2024-03-29T10:13:44;15.10;99.90
15930;DHT22;8064;51.142;4.780;2024-03-29T10:16:11;15.30;99.90
15930;DHT22;8064;51.142;4.780;2024-03-29T10:18:40;15.50;99.90
15930;DHT22;8064;51.142;4.780;2024-03-29T10:21:07;15.60;99.90
15930;DHT22;8064;51.142;4.780;2024-03-29T10:23:34;15.70;99.90
15930;DHT22;8064;51.142;4.780;2024-03-29T10:26:02;15.70;99.90
15930;DHT22;8064;51.142;4.780;2024-03-29T10:28:31;15.80;99.90
15930;DHT22;8064;51.142;4.780;2024-03-29T10:30:58;15.90;99.90
15930;DHT22;8064;51.142;4.780;2024-03-29T10:33:28;15.90;99.90
15930;DHT22;8064;51.142;4.780;2024-03-29T10:35:55;15.90;99.90
15930;DHT22;8064;51.142;4.780;2024-03-29T10:38:22;16.00;99.90
15930;DHT22;8064;51.142;4.780;2024-03-29T10:40:49;16.20;99.90
15930;DHT22;8064;51.142;4.780;2024-03-29T10:43:17;16.30;99.90
15930;DHT22;8064;51.142;4.780;2024-03-29T10:45:45;16.40;99.90
15930;DHT22;8064;51.142;4.780;2024-03-29T10:48:15;16.40;99.90
15930;DHT22;8064;51.142;4.780;2024-03-29T10:50:42;16.40;99.90
15930;DHT22;8064;51.142;4.780;2024-03-29T10:53:09;16.50;99.90
15930;DHT22;8064;51.142;4.780;2024-03-29T10:55:37;16.70;99.90
15930;DHT22;8064;51.142;4.780;2024-03-29T10:58:05;17.00;99.90
15930;DHT22;8064;51.142;4.780;2024-03-29T11:00:38;17.20;99.70
15930;DHT22;8064;51.142;4.780;2024-03-29T11:05:41;17.50;99.30
15930;DHT22;8064;51.142;4.780;2024-03-29T11:08:09;17.50;99.20
15930;DHT22;8064;51.142;4.780;2024-03-29T11:10:39;17.50;99.00
15930;DHT22;8064;51.142;4.780;2024-03-29T11:13:19;17.60;98.70
15930;DHT22;8064;51.142;4.780;2024-03-29T11:15:47;17.70;98.50
15930;DHT22;8064;51.142;4.780;2024-03-29T11:18:15;17.70;98.30
15930;DHT22;8064;51.142;4.780;2024-03-29T11:20:46;17.70;98.00
15930;DHT22;8064;51.142;4.780;2024-03-29T11:23:20;17.70;98.10
15930;DHT22;8064;51.142;4.780;2024-03-29T11:25:49;17.80;98.20
15930;DHT22;8064;51.142;4.780;2024-03-29T11:28:25;17.80;98.00
15930;DHT22;8064;51.142;4.780;2024-03-29T11:30:53;17.60;97.90
15930;DHT22;8064;51.142;4.780;2024-03-29T11:33:44;17.30;97.90
15930;DHT22;8064;51.142;4.780;2024-03-29T11:38:38;17.10;97.70
15930;DHT22;8064;51.142;4.780;2024-03-29T11:41:07;17.00;97.70
15930;DHT22;8064;51.142;4.780;2024-03-29T11:43:34;16.90;97.70
15930;DHT22;8064;51.142;4.780;2024-03-29T11:46:02;16.90;97.80
15930;DHT22;8064;51.142;4.780;2024-03-29T11:48:29;17.00;97.70
15930;DHT22;8064;51.142;4.780;2024-03-29T11:50:57;17.00;97.70
15930;DHT22;8064;51.142;4.780;2024-03-29T11:53:23;17.10;97.80
15930;DHT22;8064;51.142;4.780;2024-03-29T11:55:49;17.20;97.80
15930;DHT22;8064;51.142;4.780;2024-03-29T11:58:20;17.20;97.50
15930;DHT22;8064;51.142;4.780;2024-03-29T12:00:47;17.30;97.50
15930;DHT22;8064;51.142;4.780;2024-03-29T12:03:15;17.30;97.50
15930;DHT22;8064;51.142;4.780;2024-03-29T12:05:42;17.30;97.60
15930;DHT22;8064;51.142;4.780;2024-03-29T12:08:09;17.30;97.50
15930;DHT22;8064;51.142;4.780;2024-03-29T12:10:35;17.30;97.40
15930;DHT22;8064;51.142;4.780;2024-03-29T12:13:05;17.40;97.20
15930;DHT22;8064;51.142;4.780;2024-03-29T12:15:31;17.50;97.20
15930;DHT22;8064;51.142;4.780;2024-03-29T12:17:59;17.50;96.90
15930;DHT22;8064;51.142;4.780;2024-03-29T12:20:26;17.50;97.00
15930;DHT22;8064;51.142;4.780;2024-03-29T12:22:52;17.70;97.10
15930;DHT22;8064;51.142;4.780;2024-03-29T12:25:20;17.80;97.00
15930;DHT22;8064;51.142;4.780;2024-03-29T12:27:47;17.80;96.80
15930;DHT22;8064;51.142;4.780;2024-03-29T12:30:14;17.80;96.70
15930;DHT22;8064;51.142;4.780;2024-03-29T12:32:42;18.00;96.60
15930;DHT22;8064;51.142;4.780;2024-03-29T12:35:12;18.10;96.50
15930;DHT22;8064;51.142;4.780;2024-03-29T12:37:38;18.10;96.40
15930;DHT22;8064;51.142;4.780;2024-03-29T12:40:12;18.20;96.20
15930;DHT22;8064;51.142;4.780;2024-03-29T12:42:40;18.20;96.10
15930;DHT22;8064;51.142;4.780;2024-03-29T12:45:07;18.20;96.10
15930;DHT22;8064;51.142;4.780;2024-03-29T12:47:35;18.20;95.90
15930;DHT22;8064;51.142;4.780;2024-03-29T12:50:02;18.20;95.60
15930;DHT22;8064;51.142;4.780;2024-03-29T12:52:37;18.10;95.40
15930;DHT22;8064;51.142;4.780;2024-03-29T12:55:05;18.10;95.40
15930;DHT22;8064;51.142;4.780;2024-03-29T12:57:31;18.10;95.40
15930;DHT22;8064;51.142;4.780;2024-03-29T12:59:57;18.20;95.60
15930;DHT22;8064;51.142;4.780;2024-03-29T13:02:23;18.20;95.90
15930;DHT22;8064;51.142;4.780;2024-03-29T13:04:48;18.30;95.10
15930;DHT22;8064;51.142;4.780;2024-03-29T13:07:14;18.20;94.80
15930;DHT22;8064;51.142;4.780;2024-03-29T13:09:41;18.20;94.60
15930;DHT22;8064;51.142;4.780;2024-03-29T13:12:06;18.00;94.20
15930;DHT22;8064;51.142;4.780;2024-03-29T13:14:33;17.90;94.20
15930;DHT22;8064;51.142;4.780;2024-03-29T13:16:59;17.80;94.30
15930;DHT22;8064;51.142;4.780;2024-03-29T13:19:25;17.70;94.30
15930;DHT22;8064;51.142;4.780;2024-03-29T13:21:51;17.70;94.40
15930;DHT22;8064;51.142;4.780;2024-03-29T13:24:17;17.70;94.50
15930;DHT22;8064;51.142;4.780;2024-03-29T13:26:42;17.80;94.30
15930;DHT22;8064;51.142;4.780;2024-03-29T13:29:08;17.80;94.10
15930;DHT22;8064;51.142;4.780;2024-03-29T13:31:34;17.80;94.00
15930;DHT22;8064;51.142;4.780;2024-03-29T13:34:00;17.80;93.80
15930;DHT22;8064;51.142;4.780;2024-03-29T13:36:38;17.80;93.80
15930;DHT22;8064;51.142;4.780;2024-03-29T13:39:05;17.80;93.60
15930;DHT22;8064;51.142;4.780;2024-03-29T13:41:31;17.90;93.70
15930;DHT22;8064;51.142;4.780;2024-03-29T13:43:56;18.00;93.60
15930;DHT22;8064;51.142;4.780;2024-03-29T13:46:23;18.00;94.00
15930;DHT22;8064;51.142;4.780;2024-03-29T13:48:48;18.00;93.50
15930;DHT22;8064;51.142;4.780;2024-03-29T13:51:14;18.00;93.40
15930;DHT22;8064;51.142;4.780;2024-03-29T13:53:42;18.10;93.40
15930;DHT22;8064;51.142;4.780;2024-03-29T13:56:07;18.10;93.30
15930;DHT22;8064;51.142;4.780;2024-03-29T13:58:33;18.00;93.10
15930;DHT22;8064;51.142;4.780;2024-03-29T14:00:59;18.00;93.20
15930;DHT22;8064;51.142;4.780;2024-03-29T14:03:26;18.00;93.00
15930;DHT22;8064;51.142;4.780;2024-03-29T14:05:52;17.90;92.90
15930;DHT22;8064;51.142;4.780;2024-03-29T14:08:18;17.80;92.90
15930;DHT22;8064;51.142;4.780;2024-03-29T14:10:43;17.80;93.00
15930;DHT22;8064;51.142;4.780;2024-03-29T14:13:09;17.70;92.90
15930;DHT22;8064;51.142;4.780;2024-03-29T14:15:35;17.60;93.00
15930;DHT22;8064;51.142;4.780;2024-03-29T14:18:01;17.60;93.00
15930;DHT22;8064;51.142;4.780;2024-03-29T14:20:27;17.50;93.20
15930;DHT22;8064;51.142;4.780;2024-03-29T14:22:52;17.50;93.20
15930;DHT22;8064;51.142;4.780;2024-03-29T14:25:21;17.50;93.20
15930;DHT22;8064;51.142;4.780;2024-03-29T14:27:47;17.60;93.40
15930;DHT22;8064;51.142;4.780;2024-03-29T14:30:20;17.60;93.40
15930;DHT22;8064;51.142;4.780;2024-03-29T14:32:47;17.60;93.40
15930;DHT22;8064;51.142;4.780;2024-03-29T14:35:13;17.70;93.40
15930;DHT22;8064;51.142;4.780;2024-03-29T14:37:40;17.70;93.30
15930;DHT22;8064;51.142;4.780;2024-03-29T14:40:06;17.70;93.20
15930;DHT22;8064;51.142;4.780;2024-03-29T14:42:32;17.70;93.30
15930;DHT22;8064;51.142;4.780;2024-03-29T14:44:58;17.80;93.30
15930;DHT22;8064;51.142;4.780;2024-03-29T14:47:24;17.90;93.10
15930;DHT22;8064;51.142;4.780;2024-03-29T14:49:49;17.90;93.00
15930;DHT22;8064;51.142;4.780;2024-03-29T14:52:15;17.90;92.70
15930;DHT22;8064;51.142;4.780;2024-03-29T14:54:41;17.90;92.70
15930;DHT22;8064;51.142;4.780;2024-03-29T14:57:07;17.90;92.80
15930;DHT22;8064;51.142;4.780;2024-03-29T14:59:32;17.90;92.70
15930;DHT22;8064;51.142;4.780;2024-03-29T15:01:59;17.90;92.70
15930;DHT22;8064;51.142;4.780;2024-03-29T15:04:25;18.00;92.70
15930;DHT22;8064;51.142;4.780;2024-03-29T15:06:51;18.00;92.70
15930;DHT22;8064;51.142;4.780;2024-03-29T15:09:17;18.00;92.70
15930;DHT22;8064;51.142;4.780;2024-03-29T15:11:43;18.00;92.50
15930;DHT22;8064;51.142;4.780;2024-03-29T15:14:08;18.00;92.40
15930;DHT22;8064;51.142;4.780;2024-03-29T15:16:36;17.90;92.30
15930;DHT22;8064;51.142;4.780;2024-03-29T15:19:02;17.90;92.40
15930;DHT22;8064;51.142;4.780;2024-03-29T15:21:28;17.80;92.40
15930;DHT22;8064;51.142;4.780;2024-03-29T15:23:54;17.70;92.50
15930;DHT22;8064;51.142;4.780;2024-03-29T15:26:20;17.60;92.30
15930;DHT22;8064;51.142;4.780;2024-03-29T15:28:46;17.40;92.30
15930;DHT22;8064;51.142;4.780;2024-03-29T15:31:30;17.40;92.60
15930;DHT22;8064;51.142;4.780;2024-03-29T15:33:56;17.30;92.70
15930;DHT22;8064;51.142;4.780;2024-03-29T15:36:22;17.20;92.60
15930;DHT22;8064;51.142;4.780;2024-03-29T15:38:48;17.00;92.60
15930;DHT22;8064;51.142;4.780;2024-03-29T15:41:17;16.90;92.50
15930;DHT22;8064;51.142;4.780;2024-03-29T15:43:44;16.90;92.50
15930;DHT22;8064;51.142;4.780;2024-03-29T15:46:10;16.80;92.60
15930;DHT22;8064;51.142;4.780;2024-03-29T15:48:38;16.70;92.60
15930;DHT22;8064;51.142;4.780;2024-03-29T15:51:05;16.60;92.70
15930;DHT22;8064;51.142;4.780;2024-03-29T15:53:37;16.60;92.80